sensor_id;sensor_type;location;lat;lon;timestamp;pressure;altitude;pressure_sealevel;temperature;humidity
72124;BME280;63818;37.134;-8.548;2023-01-16T00:02:04;102585.6;;;13.9;52.0
72124;BME280;63818;37.134;-8.548;2023-01-16T00:06:53;102588.9;;;13.8;51.2
72124;BME280;63818;37.134;-8.548;2023-01-16T00:11:42;102586.5;;;13.8;51.6
72124;BME280;63818;37.134;-8.548;2023-01-16T00:16:41;102569.8;;;13.8;51.5
72124;BME280;63818;37.134;-8.548;2023-01-16T00:21:30;102557.3;;;13.8;50.8
72124;BME280;63818;37.134;-8.548;2023-01-16T00:26:18;102554.9;;;13.8;51.2
72124;BME280;63818;37.134;-8.548;2023-01-16T00:31:07;102565.8;;;13.7;51.0
72124;BME280;63818;37.134;-8.548;2023-01-16T00:35:56;102563.6;;;13.8;50.7
72124;BME280;63818;37.134;-8.548;2023-01-16T00:40:47;102582.0;;;13.7;51.2
72124;BME280;63818;37.134;-8.548;2023-01-16T00:45:36;102569.9;;;13.7;51.1
72124;BME280;63818;37.134;-8.548;2023-01-16T00:50:26;102575.0;;;13.7;51.1
72124;BME280;63818;37.134;-8.548;2023-01-16T00:55:15;102572.9;;;13.6;51.5
72124;BME280;63818;37.134;-8.548;2023-01-16T01:00:05;102568.2;;;13.7;51.5
72124;BME280;63818;37.134;-8.548;2023-01-16T01:04:57;102576.6;;;13.7;51.8
72124;BME280;63818;37.134;-8.548;2023-01-16T01:09:55;102572.1;;;13.6;51.7
72124;BME280;63818;37.134;-8.548;2023-01-16T01:14:43;102567.5;;;13.6;51.8
72124;BME280;63818;37.134;-8.548;2023-01-16T01:19:43;102552.1;;;13.6;52.0
72124;BME280;63818;37.134;-8.548;2023-01-16T01:24:32;102553.4;;;13.6;52.3
72124;BME280;63818;37.134;-8.548;2023-01-16T01:29:29;102546.2;;;13.5;52.6
72124;BME280;63818;37.134;-8.548;2023-01-16T01:34:18;102543.2;;;13.5;52.8
72124;BME280;63818;37.134;-8.548;2023-01-16T01:39:13;102530.5;;;13.6;52.7
72124;BME280;63818;37.134;-8.548;2023-01-16T01:44:02;102528.3;;;13.6;52.4
72124;BME280;63818;37.134;-8.548;2023-01-16T01:48:54;102532.6;;;13.6;52.5
72124;BME280;63818;37.134;-8.548;2023-01-16T01:53:47;102530.5;;;13.6;52.8
72124;BME280;63818;37.134;-8.548;2023-01-16T01:58:37;102530.8;;;13.6;52.9
72124;BME280;63818;37.134;-8.548;2023-01-16T02:03:29;102518.1;;;13.5;52.9
72124;BME280;63818;37.134;-8.548;2023-01-16T02:08:24;102518.2;;;13.5;53.0
72124;BME280;63818;37.134;-8.548;2023-01-16T02:13:16;102530.9;;;13.4;53.5
72124;BME280;63818;37.134;-8.548;2023-01-16T02:18:09;102539.6;;;13.4;53.9
72124;BME280;63818;37.134;-8.548;2023-01-16T02:31:48;102524.5;;;13.4;54.5
72124;BME280;63818;37.134;-8.548;2023-01-16T02:36:52;102535.5;;;13.4;54.3
72124;BME280;63818;37.134;-8.548;2023-01-16T02:41:48;102530.1;;;13.4;54.6
72124;BME280;63818;37.134;-8.548;2023-01-16T02:46:43;102545.5;;;13.4;54.6
72124;BME280;63818;37.134;-8.548;2023-01-16T02:51:49;102531.7;;;13.4;54.3
72124;BME280;63818;37.134;-8.548;2023-01-16T02:56:40;102528.5;;;13.5;54.5
72124;BME280;63818;37.134;-8.548;2023-01-16T03:01:32;102520.1;;;13.4;54.8
72124;BME280;63818;37.134;-8.548;2023-01-16T03:06:33;102524.5;;;13.4;54.6
72124;BME280;63818;37.134;-8.548;2023-01-16T03:11:25;102517.7;;;13.4;54.7
72124;BME280;63818;37.134;-8.548;2023-01-16T03:16:28;102519.3;;;13.4;54.8
72124;BME280;63818;37.134;-8.548;2023-01-16T03:21:22;102516.6;;;13.4;55.1
72124;BME280;63818;37.134;-8.548;2023-01-16T03:26:18;102514.8;;;13.3;55.1
72124;BME280;63818;37.134;-8.548;2023-01-16T03:36:10;102484.8;;;13.4;54.9
72124;BME280;63818;37.134;-8.548;2023-01-16T03:41:03;102484.5;;;13.4;54.7
72124;BME280;63818;37.134;-8.548;2023-01-16T03:45:57;102481.5;;;13.4;54.9
72124;BME280;63818;37.134;-8.548;2023-01-16T03:50:51;102473.9;;;13.4;54.9
72124;BME280;63818;37.134;-8.548;2023-01-16T03:55:46;102476.7;;;13.4;55.5
72124;BME280;63818;37.134;-8.548;2023-01-16T04:00:44;102474.8;;;13.4;55.6
72124;BME280;63818;37.134;-8.548;2023-01-16T04:05:46;102467.5;;;13.4;56.1
72124;BME280;63818;37.134;-8.548;2023-01-16T04:10:38;102466.5;;;13.3;56.6
72124;BME280;63818;37.134;-8.548;2023-01-16T04:15:31;102466.2;;;13.3;57.1
72124;BME280;63818;37.134;-8.548;2023-01-16T04:20:32;102453.5;;;13.3;56.7
72124;BME280;63818;37.134;-8.548;2023-01-16T04:25:23;102452.4;;;13.4;56.9
72124;BME280;63818;37.134;-8.548;2023-01-16T04:30:12;102458.9;;;13.4;57.0
72124;BME280;63818;37.134;-8.548;2023-01-16T04:35:01;102448.0;;;13.4;56.6
72124;BME280;63818;37.134;-8.548;2023-01-16T04:39:53;102451.0;;;13.4;56.9
72124;BME280;63818;37.134;-8.548;2023-01-16T04:45:03;102435.9;;;13.4;56.4
72124;BME280;63818;37.134;-8.548;2023-01-16T04:49:52;102436.7;;;13.5;56.8
72124;BME280;63818;37.134;-8.548;2023-01-16T04:54:40;102428.6;;;13.4;57.0
72124;BME280;63818;37.134;-8.548;2023-01-16T04:59:33;102426.2;;;13.3;56.9
72124;BME280;63818;37.134;-8.548;2023-01-16T05:04:21;102414.1;;;13.3;57.8
72124;BME280;63818;37.134;-8.548;2023-01-16T05:09:10;102409.8;;;13.3;57.7
72124;BME280;63818;37.134;-8.548;2023-01-16T05:13:58;102406.6;;;13.2;58.3
72124;BME280;63818;37.134;-8.548;2023-01-16T05:18:56;102400.4;;;13.2;58.2
72124;BME280;63818;37.134;-8.548;2023-01-16T05:23:50;102396.6;;;13.3;58.4
72124;BME280;63818;37.134;-8.548;2023-01-16T05:28:42;102390.4;;;13.3;59.2
72124;BME280;63818;37.134;-8.548;2023-01-16T05:33:33;102382.0;;;13.2;60.4
72124;BME280;63818;37.134;-8.548;2023-01-16T05:38:23;102382.6;;;13.2;61.3
72124;BME280;63818;37.134;-8.548;2023-01-16T05:43:14;102387.9;;;13.3;62.1
72124;BME280;63818;37.134;-8.548;2023-01-16T05:48:04;102390.9;;;13.3;62.3
72124;BME280;63818;37.134;-8.548;2023-01-16T05:52:55;102402.0;;;13.3;62.2
72124;BME280;63818;37.134;-8.548;2023-01-16T05:57:43;102403.1;;;13.3;62.3
72124;BME280;63818;37.134;-8.548;2023-01-16T06:02:36;102414.1;;;13.3;62.8
72124;BME280;63818;37.134;-8.548;2023-01-16T06:07:25;102413.0;;;13.3;62.9
72124;BME280;63818;37.134;-8.548;2023-01-16T06:12:15;102395.7;;;13.3;61.7
72124;BME280;63818;37.134;-8.548;2023-01-16T06:17:04;102388.4;;;13.3;61.7
72124;BME280;63818;37.134;-8.548;2023-01-16T06:21:53;102390.4;;;13.3;62.4
72124;BME280;63818;37.134;-8.548;2023-01-16T06:26:42;102401.4;;;13.3;62.5
72124;BME280;63818;37.134;-8.548;2023-01-16T06:31:30;102389.8;;;13.3;62.7
72124;BME280;63818;37.134;-8.548;2023-01-16T06:36:26;102381.5;;;13.3;63.4
72124;BME280;63818;37.134;-8.548;2023-01-16T06:46:09;102387.7;;;13.2;64.3
72124;BME280;63818;37.134;-8.548;2023-01-16T06:50:59;102378.2;;;13.3;64.6
72124;BME280;63818;37.134;-8.548;2023-01-16T06:55:48;102385.8;;;13.3;64.6
72124;BME280;63818;37.134;-8.548;2023-01-16T07:00:42;102397.8;;;13.4;64.7
72124;BME280;63818;37.134;-8.548;2023-01-16T07:05:31;102386.5;;;13.4;64.9
72124;BME280;63818;37.134;-8.548;2023-01-16T07:10:20;102384.1;;;13.3;65.6
72124;BME280;63818;37.134;-8.548;2023-01-16T07:15:10;102379.0;;;13.3;66.3
72124;BME280;63818;37.134;-8.548;2023-01-16T07:19:58;102388.2;;;13.3;66.8
72124;BME280;63818;37.134;-8.548;2023-01-16T07:24:49;102389.0;;;13.3;67.2
72124;BME280;63818;37.134;-8.548;2023-01-16T07:29:40;102388.2;;;13.3;67.6
72124;BME280;63818;37.134;-8.548;2023-01-16T07:34:33;102392.5;;;13.3;68.2
72124;BME280;63818;37.134;-8.548;2023-01-16T07:39:22;102395.7;;;13.3;68.0
72124;BME280;63818;37.134;-8.548;2023-01-16T07:44:14;102398.1;;;13.4;67.5
72124;BME280;63818;37.134;-8.548;2023-01-16T07:49:08;102407.9;;;13.3;67.7
72124;BME280;63818;37.134;-8.548;2023-01-16T07:54:00;102399.5;;;13.4;68.1
72124;BME280;63818;37.134;-8.548;2023-01-16T07:58:51;102405.4;;;13.4;67.6
72124;BME280;63818;37.134;-8.548;2023-01-16T08:03:41;102412.2;;;13.3;68.1
72124;BME280;63818;37.134;-8.548;2023-01-16T08:08:30;102432.0;;;13.2;68.2
72124;BME280;63818;37.134;-8.548;2023-01-16T08:13:21;102417.4;;;13.2;68.6
72124;BME280;63818;37.134;-8.548;2023-01-16T08:18:10;102423.1;;;13.2;69.6
72124;BME280;63818;37.134;-8.548;2023-01-16T08:23:04;102429.3;;;13.2;70.1
72124;BME280;63818;37.134;-8.548;2023-01-16T08:27:52;102435.8;;;13.2;70.7
72124;BME280;63818;37.134;-8.548;2023-01-16T08:32:43;102438.2;;;13.2;70.9
72124;BME280;63818;37.134;-8.548;2023-01-16T08:37:45;102440.6;;;13.2;71.1
72124;BME280;63818;37.134;-8.548;2023-01-16T08:42:37;102436.6;;;13.2;70.9
72124;BME280;63818;37.134;-8.548;2023-01-16T08:47:26;102441.4;;;13.2;70.7
72124;BME280;63818;37.134;-8.548;2023-01-16T08:52:15;102441.5;;;13.2;70.9
72124;BME280;63818;37.134;-8.548;2023-01-16T08:57:04;102440.3;;;13.3;71.0
72124;BME280;63818;37.134;-8.548;2023-01-16T09:02:00;102448.4;;;13.3;71.5
72124;BME280;63818;37.134;-8.548;2023-01-16T09:06:49;102462.4;;;13.3;72.4
72124;BME280;63818;37.134;-8.548;2023-01-16T09:11:41;102461.5;;;13.4;72.9
72124;BME280;63818;37.134;-8.548;2023-01-16T09:16:30;102467.3;;;13.6;73.4
72124;BME280;63818;37.134;-8.548;2023-01-16T09:21:19;102463.8;;;13.6;73.7
72124;BME280;63818;37.134;-8.548;2023-01-16T09:26:08;102462.5;;;13.6;74.2
72124;BME280;63818;37.134;-8.548;2023-01-16T09:30:57;102456.5;;;13.6;74.6
72124;BME280;63818;37.134;-8.548;2023-01-16T09:35:46;102454.0;;;13.7;75.3
72124;BME280;63818;37.134;-8.548;2023-01-16T09:40:37;102463.3;;;13.8;75.8
72124;BME280;63818;37.134;-8.548;2023-01-16T09:45:27;102460.5;;;13.9;76.4
72124;BME280;63818;37.134;-8.548;2023-01-16T09:50:26;102456.6;;;14.0;77.3
72124;BME280;63818;37.134;-8.548;2023-01-16T09:55:21;102468.1;;;13.9;78.7
72124;BME280;63818;37.134;-8.548;2023-01-16T10:00:20;102467.9;;;13.9;79.9
72124;BME280;63818;37.134;-8.548;2023-01-16T10:05:11;102477.8;;;13.9;80.1
72124;BME280;63818;37.134;-8.548;2023-01-16T10:10:04;102479.0;;;14.0;79.8
72124;BME280;63818;37.134;-8.548;2023-01-16T10:15:04;102472.1;;;14.2;79.1
72124;BME280;63818;37.134;-8.548;2023-01-16T10:20:38;102474.8;;;14.4;77.9
72124;BME280;63818;37.134;-8.548;2023-01-16T10:25:31;102456.4;;;14.4;78.5
72124;BME280;63818;37.134;-8.548;2023-01-16T10:30:26;102482.8;;;14.3;81.2
72124;BME280;63818;37.134;-8.548;2023-01-16T10:35:23;102493.5;;;14.1;84.5
72124;BME280;63818;37.134;-8.548;2023-01-16T10:40:18;102488.7;;;14.0;86.5
72124;BME280;63818;37.134;-8.548;2023-01-16T10:45:13;102490.6;;;14.0;88.1
72124;BME280;63818;37.134;-8.548;2023-01-16T10:50:03;102491.2;;;14.0;88.5
72124;BME280;63818;37.134;-8.548;2023-01-16T10:55:18;102474.9;;;14.1;88.6
72124;BME280;63818;37.134;-8.548;2023-01-16T11:00:12;102473.7;;;14.2;88.5
72124;BME280;63818;37.134;-8.548;2023-01-16T11:05:26;102464.5;;;14.5;88.1
72124;BME280;63818;37.134;-8.548;2023-01-16T11:10:16;102463.6;;;14.5;87.0
72124;BME280;63818;37.134;-8.548;2023-01-16T11:15:09;102455.7;;;14.6;85.7
72124;BME280;63818;37.134;-8.548;2023-01-16T11:20:05;102449.9;;;14.6;84.7
72124;BME280;63818;37.134;-8.548;2023-01-16T11:24:58;102433.4;;;14.6;84.5
72124;BME280;63818;37.134;-8.548;2023-01-16T11:29:51;102436.8;;;14.5;81.1
72124;BME280;63818;37.134;-8.548;2023-01-16T11:34:49;102431.7;;;14.5;80.5
72124;BME280;63818;37.134;-8.548;2023-01-16T11:39:38;102407.5;;;14.6;79.2
72124;BME280;63818;37.134;-8.548;2023-01-16T11:44:29;102380.5;;;14.8;77.5
72124;BME280;63818;37.134;-8.548;2023-01-16T11:49:26;102377.5;;;15.1;76.1
72124;BME280;63818;37.134;-8.548;2023-01-16T11:54:20;102369.1;;;15.2;76.1
72124;BME280;63818;37.134;-8.548;2023-01-16T11:59:28;102341.5;;;15.2;77.4
72124;BME280;63818;37.134;-8.548;2023-01-16T12:04:22;102338.1;;;15.3;75.9
72124;BME280;63818;37.134;-8.548;2023-01-16T12:10:00;102329.2;;;15.4;76.3
72124;BME280;63818;37.134;-8.548;2023-01-16T12:14:57;102308.1;;;15.6;74.3
72124;BME280;63818;37.134;-8.548;2023-01-16T12:20:02;102292.2;;;15.7;72.5
72124;BME280;63818;37.134;-8.548;2023-01-16T12:25:04;102324.3;;;15.5;74.2
72124;BME280;63818;37.134;-8.548;2023-01-16T12:30:00;102280.2;;;15.3;76.3
72124;BME280;63818;37.134;-8.548;2023-01-16T12:35:03;102262.2;;;15.4;78.8
72124;BME280;63818;37.134;-8.548;2023-01-16T12:40:01;102264.9;;;15.2;79.7
72124;BME280;63818;37.134;-8.548;2023-01-16T12:45:04;102241.1;;;15.1;80.9
72124;BME280;63818;37.134;-8.548;2023-01-16T12:50:03;102241.4;;;14.9;82.3
72124;BME280;63818;37.134;-8.548;2023-01-16T12:55:04;102243.1;;;15.0;83.4
72124;BME280;63818;37.134;-8.548;2023-01-16T13:00:00;102219.3;;;15.4;83.1
72124;BME280;63818;37.134;-8.548;2023-01-16T13:04:52;102192.3;;;15.6;82.4
72124;BME280;63818;37.134;-8.548;2023-01-16T13:09:46;102169.4;;;15.8;80.9
72124;BME280;63818;37.134;-8.548;2023-01-16T13:14:46;102136.3;;;15.8;76.0
72124;BME280;63818;37.134;-8.548;2023-01-16T13:19:38;102126.8;;;15.9;73.3
72124;BME280;63818;37.134;-8.548;2023-01-16T13:24:42;102111.0;;;16.2;73.4
72124;BME280;63818;37.134;-8.548;2023-01-16T13:29:36;102114.6;;;16.3;71.6
72124;BME280;63818;37.134;-8.548;2023-01-16T13:34:29;102113.7;;;15.9;73.1
72124;BME280;63818;37.134;-8.548;2023-01-16T13:44:55;102133.8;;;15.6;79.8
72124;BME280;63818;37.134;-8.548;2023-01-16T13:49:54;102104.9;;;15.5;78.8
72124;BME280;63818;37.134;-8.548;2023-01-16T13:54:44;102110.3;;;15.6;78.3
72124;BME280;63818;37.134;-8.548;2023-01-16T13:59:46;102092.4;;;15.8;77.8
72124;BME280;63818;37.134;-8.548;2023-01-16T14:04:36;102081.3;;;16.0;76.6
72124;BME280;63818;37.134;-8.548;2023-01-16T14:09:24;102041.9;;;16.5;74.2
72124;BME280;63818;37.134;-8.548;2023-01-16T14:14:27;102049.0;;;15.9;75.6
72124;BME280;63818;37.134;-8.548;2023-01-16T14:19:25;102073.2;;;15.6;79.1
72124;BME280;63818;37.134;-8.548;2023-01-16T14:24:20;102093.8;;;15.1;85.7
72124;BME280;63818;37.134;-8.548;2023-01-16T14:29:13;102079.8;;;14.8;88.8
72124;BME280;63818;37.134;-8.548;2023-01-16T14:34:03;102082.8;;;17.2;82.2
72124;BME280;63818;37.134;-8.548;2023-01-16T14:38:55;101981.7;;;23.6;55.9
72124;BME280;63818;37.134;-8.548;2023-01-16T14:44:14;101978.8;;;24.0;51.8
72124;BME280;63818;37.134;-8.548;2023-01-16T14:49:38;101977.1;;;24.4;48.5
72124;BME280;63818;37.134;-8.548;2023-01-16T14:54:30;102021.1;;;18.2;68.0
72124;BME280;63818;37.134;-8.548;2023-01-16T14:59:22;102026.1;;;16.8;75.3
72124;BME280;63818;37.134;-8.548;2023-01-16T15:04:13;102047.6;;;16.1;80.4
72124;BME280;63818;37.134;-8.548;2023-01-16T15:09:03;102045.8;;;16.5;80.4
72124;BME280;63818;37.134;-8.548;2023-01-16T15:14:03;102053.4;;;16.8;77.2
72124;BME280;63818;37.134;-8.548;2023-01-16T15:18:52;102022.7;;;17.4;74.2
72124;BME280;63818;37.134;-8.548;2023-01-16T15:23:43;102027.1;;;16.7;75.2
72124;BME280;63818;37.134;-8.548;2023-01-16T15:28:43;101941.8;;;28.0;41.1
72124;BME280;63818;37.134;-8.548;2023-01-16T15:33:34;101927.1;;;26.9;39.8
72124;BME280;63818;37.134;-8.548;2023-01-16T15:38:25;101973.8;;;22.6;50.8
72124;BME280;63818;37.134;-8.548;2023-01-16T15:43:12;101968.3;;;19.0;59.4
72124;BME280;63818;37.134;-8.548;2023-01-16T15:48:27;101976.9;;;20.6;55.1
72124;BME280;63818;37.134;-8.548;2023-01-16T15:53:19;101936.6;;;19.6;58.7
72124;BME280;63818;37.134;-8.548;2023-01-16T15:58:13;101948.5;;;18.6;61.4
72124;BME280;63818;37.134;-8.548;2023-01-16T16:03:09;101952.1;;;17.5;63.8
72124;BME280;63818;37.134;-8.548;2023-01-16T16:07:59;101933.8;;;16.9;66.0
72124;BME280;63818;37.134;-8.548;2023-01-16T16:12:48;101910.6;;;16.6;68.2
72124;BME280;63818;37.134;-8.548;2023-01-16T16:17:36;101925.9;;;16.4;68.7
72124;BME280;63818;37.134;-8.548;2023-01-16T16:22:25;101928.7;;;16.2;68.4
72124;BME280;63818;37.134;-8.548;2023-01-16T16:27:15;101937.7;;;16.0;68.8
72124;BME280;63818;37.134;-8.548;2023-01-16T16:32:06;101930.5;;;15.9;70.2
72124;BME280;63818;37.134;-8.548;2023-01-16T16:37:01;101926.5;;;15.8;71.0
72124;BME280;63818;37.134;-8.548;2023-01-16T16:41:51;101923.8;;;15.8;72.5
72124;BME280;63818;37.134;-8.548;2023-01-16T16:46:40;101928.0;;;15.7;73.3
72124;BME280;63818;37.134;-8.548;2023-01-16T16:51:31;101944.4;;;15.6;74.4
72124;BME280;63818;37.134;-8.548;2023-01-16T16:56:23;101942.3;;;15.6;74.9
72124;BME280;63818;37.134;-8.548;2023-01-16T17:01:16;101950.4;;;15.5;75.8
72124;BME280;63818;37.134;-8.548;2023-01-16T17:06:07;101936.7;;;15.3;76.3
72124;BME280;63818;37.134;-8.548;2023-01-16T17:11:01;101938.5;;;15.3;76.4
72124;BME280;63818;37.134;-8.548;2023-01-16T17:15:53;101936.4;;;15.3;76.9
72124;BME280;63818;37.134;-8.548;2023-01-16T17:21:12;101935.7;;;15.2;77.4
72124;BME280;63818;37.134;-8.548;2023-01-16T17:26:00;101930.1;;;15.2;77.8
72124;BME280;63818;37.134;-8.548;2023-01-16T17:30:52;101916.1;;;15.2;78.1
72124;BME280;63818;37.134;-8.548;2023-01-16T17:35:43;101906.7;;;15.1;78.2
72124;BME280;63818;37.134;-8.548;2023-01-16T17:40:32;101893.7;;;15.1;77.5
72124;BME280;63818;37.134;-8.548;2023-01-16T17:45:26;101886.2;;;15.1;77.1
72124;BME280;63818;37.134;-8.548;2023-01-16T17:50:18;101879.8;;;15.0;76.3
72124;BME280;63818;37.134;-8.548;2023-01-16T17:55:08;101859.6;;;15.0;76.2
72124;BME280;63818;37.134;-8.548;2023-01-16T17:59:57;101864.5;;;15.0;76.2
72124;BME280;63818;37.134;-8.548;2023-01-16T18:04:46;101856.7;;;15.0;76.7
72124;BME280;63818;37.134;-8.548;2023-01-16T18:09:37;101872.8;;;14.9;76.4
72124;BME280;63818;37.134;-8.548;2023-01-16T18:14:27;101885.3;;;14.9;76.2
72124;BME280;63818;37.134;-8.548;2023-01-16T18:19:16;101871.6;;;14.9;76.7
72124;BME280;63818;37.134;-8.548;2023-01-16T18:24:05;101870.3;;;14.8;77.1
72124;BME280;63818;37.134;-8.548;2023-01-16T18:28:54;101870.8;;;14.9;77.6
72124;BME280;63818;37.134;-8.548;2023-01-16T18:33:42;101870.0;;;14.9;78.2
72124;BME280;63818;37.134;-8.548;2023-01-16T18:38:33;101876.8;;;14.8;79.1
72124;BME280;63818;37.134;-8.548;2023-01-16T18:43:25;101888.2;;;14.8;80.2
72124;BME280;63818;37.134;-8.548;2023-01-16T18:48:14;101878.4;;;14.8;81.2
72124;BME280;63818;37.134;-8.548;2023-01-16T18:53:03;101892.1;;;14.6;82.2
72124;BME280;63818;37.134;-8.548;2023-01-16T18:57:51;101883.2;;;14.6;82.4
72124;BME280;63818;37.134;-8.548;2023-01-16T19:02:45;101875.7;;;14.6;82.2
72124;BME280;63818;37.134;-8.548;2023-01-16T19:07:37;101859.8;;;14.6;81.9
72124;BME280;63818;37.134;-8.548;2023-01-16T19:12:30;101865.3;;;14.5;81.8
72124;BME280;63818;37.134;-8.548;2023-01-16T19:17:19;101846.2;;;14.5;82.0
72124;BME280;63818;37.134;-8.548;2023-01-16T19:22:07;101871.8;;;14.4;82.3
72124;BME280;63818;37.134;-8.548;2023-01-16T19:26:56;101865.4;;;14.5;82.1
72124;BME280;63818;37.134;-8.548;2023-01-16T19:31:45;101877.8;;;14.5;82.9
72124;BME280;63818;37.134;-8.548;2023-01-16T19:36:35;101866.3;;;14.4;84.8
72124;BME280;63818;37.134;-8.548;2023-01-16T19:41:24;101859.8;;;14.5;85.5
72124;BME280;63818;37.134;-8.548;2023-01-16T19:46:13;101867.1;;;14.4;85.5
72124;BME280;63818;37.134;-8.548;2023-01-16T19:51:03;101855.8;;;14.4;85.4
72124;BME280;63818;37.134;-8.548;2023-01-16T19:55:52;101863.0;;;14.5;85.1
72124;BME280;63818;37.134;-8.548;2023-01-16T20:00:41;101860.8;;;14.5;84.5
72124;BME280;63818;37.134;-8.548;2023-01-16T20:05:30;101863.5;;;14.5;84.4
72124;BME280;63818;37.134;-8.548;2023-01-16T20:10:20;101856.7;;;14.5;84.4
72124;BME280;63818;37.134;-8.548;2023-01-16T20:15:09;101832.7;;;14.5;84.2
72124;BME280;63818;37.134;-8.548;2023-01-16T20:19:58;101829.0;;;14.5;83.9
72124;BME280;63818;37.134;-8.548;2023-01-16T20:24:46;101818.2;;;14.5;84.3
72124;BME280;63818;37.134;-8.548;2023-01-16T20:29:37;101810.4;;;14.4;83.8
72124;BME280;63818;37.134;-8.548;2023-01-16T20:34:26;101797.0;;;14.4;84.0
72124;BME280;63818;37.134;-8.548;2023-01-16T20:39:18;101810.2;;;14.4;84.2
72124;BME280;63818;37.134;-8.548;2023-01-16T20:44:13;101804.2;;;14.3;84.9
72124;BME280;63818;37.134;-8.548;2023-01-16T20:49:05;101811.8;;;14.3;85.9
72124;BME280;63818;37.134;-8.548;2023-01-16T20:53:54;101805.6;;;14.3;86.6
72124;BME280;63818;37.134;-8.548;2023-01-16T20:58:43;101798.3;;;14.3;87.2
72124;BME280;63818;37.134;-8.548;2023-01-16T21:03:32;101795.1;;;14.3;87.5
72124;BME280;63818;37.134;-8.548;2023-01-16T21:08:21;101785.4;;;14.3;87.2
72124;BME280;63818;37.134;-8.548;2023-01-16T21:13:12;101793.5;;;14.3;87.3
72124;BME280;63818;37.134;-8.548;2023-01-16T21:18:00;101802.7;;;14.2;87.2
72124;BME280;63818;37.134;-8.548;2023-01-16T21:22:49;101801.6;;;14.3;88.4
72124;BME280;63818;37.134;-8.548;2023-01-16T21:27:40;101791.9;;;14.2;89.4
72124;BME280;63818;37.134;-8.548;2023-01-16T21:32:29;101791.2;;;14.2;89.7
72124;BME280;63818;37.134;-8.548;2023-01-16T21:37:20;101789.3;;;14.2;89.8
72124;BME280;63818;37.134;-8.548;2023-01-16T21:42:10;101786.7;;;14.1;90.2
72124;BME280;63818;37.134;-8.548;2023-01-16T21:46:58;101780.2;;;14.2;90.7
72124;BME280;63818;37.134;-8.548;2023-01-16T21:51:47;101769.7;;;14.1;90.6
72124;BME280;63818;37.134;-8.548;2023-01-16T21:56:36;101768.9;;;14.1;90.2
72124;BME280;63818;37.134;-8.548;2023-01-16T22:01:24;101767.9;;;14.1;89.4
72124;BME280;63818;37.134;-8.548;2023-01-16T22:06:13;101742.0;;;14.1;88.0
72124;BME280;63818;37.134;-8.548;2023-01-16T22:11:07;101731.0;;;14.1;86.5
72124;BME280;63818;37.134;-8.548;2023-01-16T22:15:55;101722.1;;;14.1;86.5
72124;BME280;63818;37.134;-8.548;2023-01-16T22:20:44;101725.8;;;14.1;86.3
72124;BME280;63818;37.134;-8.548;2023-01-16T22:25:33;101735.6;;;14.1;86.4
72124;BME280;63818;37.134;-8.548;2023-01-16T22:30:23;101748.7;;;14.2;86.8
72124;BME280;63818;37.134;-8.548;2023-01-16T22:35:12;101756.5;;;14.1;88.6
72124;BME280;63818;37.134;-8.548;2023-01-16T22:40:02;101767.9;;;14.1;90.1
72124;BME280;63818;37.134;-8.548;2023-01-16T22:44:54;101755.8;;;14.1;91.6
72124;BME280;63818;37.134;-8.548;2023-01-16T22:49:42;101760.7;;;14.1;92.7
72124;BME280;63818;37.134;-8.548;2023-01-16T22:54:32;101757.8;;;14.0;93.1
72124;BME280;63818;37.134;-8.548;2023-01-16T22:59:21;101756.2;;;14.0;93.9
72124;BME280;63818;37.134;-8.548;2023-01-16T23:04:16;101771.6;;;14.0;93.8
72124;BME280;63818;37.134;-8.548;2023-01-16T23:09:05;101771.3;;;14.0;92.3
72124;BME280;63818;37.134;-8.548;2023-01-16T23:13:59;101754.1;;;14.0;91.4
72124;BME280;63818;37.134;-8.548;2023-01-16T23:18:48;101752.6;;;13.9;90.6
72124;BME280;63818;37.134;-8.548;2023-01-16T23:23:37;101722.1;;;13.9;88.8
72124;BME280;63818;37.134;-8.548;2023-01-16T23:28:29;101721.4;;;14.0;87.9
72124;BME280;63818;37.134;-8.548;2023-01-16T23:33:18;101725.1;;;14.0;87.8
72124;BME280;63818;37.134;-8.548;2023-01-16T23:38:07;101712.4;;;14.0;88.4
72124;BME280;63818;37.134;-8.548;2023-01-16T23:42:56;101707.0;;;14.0;88.9
72124;BME280;63818;37.134;-8.548;2023-01-16T23:47:58;101708.8;;;13.9;89.6
72124;BME280;63818;37.134;-8.548;2023-01-16T23:52:50;101685.6;;;13.9;89.9
72124;BME280;63818;37.134;-8.548;2023-01-16T23:57:38;101675.8;;;14.0;89.8
